Time;durP1;ratioP1;P1;durP2;ratioP2;P2;SDS_P1;SDS_P2;PMS_P1;PMS_P2;Temp;Humidity;BMP_temperature;BMP_pressure;BME280_temperature;BME280_humidity;BME280_pressure;Samples;Min_cycle;Max_cycle;Signal;HPM_P1;HPM_P2
2022/12/12 00:02:18;;;;;;;14.68;5.88;;;;;;;;;;6271250;22;20008;-94
2022/12/12 00:04:43;;;;;;;15.57;5.63;;;;;;;;;;6264118;22;20003;-93
2022/12/12 00:07:09;;;;;;;15.35;5.43;;;;;;;;;;6316720;22;20007;-93
2022/12/12 00:09:34;;;;;;;17.40;5.80;;;;;;;;;;6316781;22;20004;-93
2022/12/12 00:11:59;;;;;;;16.55;6.03;;;;;;;;;;6317402;22;20011;-92
2022/12/12 00:14:25;;;;;;;17.30;6.93;;;;;;;;;;6317750;22;20012;-92
2022/12/12 00:16:50;;;;;;;15.55;5.65;;;;;;;;;;6316536;22;20295;-92
2022/12/12 00:19:15;;;;;;;15.77;5.68;;;;;;;;;;6317747;22;20014;-93
2022/12/12 00:21:41;;;;;;;17.20;6.75;;;;;;;;;;6269335;22;20003;-92
2022/12/12 00:24:06;;;;;;;18.38;6.78;;;;;;;;;;6318015;22;20058;-92
2022/12/12 00:26:33;;;;;;;17.15;6.35;;;;;;;;;;6266818;22;20114;-91
2022/12/12 00:28:59;;;;;;;16.52;6.90;;;;;;;;;;6266299;22;20012;-93
2022/12/12 00:31:24;;;;;;;19.17;6.70;;;;;;;;;;6267296;22;20015;-92
2022/12/12 00:33:50;;;;;;;19.98;7.68;;;;;;;;;;6269362;22;20019;-95
2022/12/12 00:36:17;;;;;;;20.50;8.88;;;;;;;;;;6268421;22;20568;-92
2022/12/12 00:38:42;;;;;;;20.05;8.30;;;;;;;;;;6267623;22;20452;-92
2022/12/12 00:41:08;;;;;;;24.10;9.02;;;;;;;;;;6270222;22;20023;-92
2022/12/12 00:43:33;;;;;;;22.88;9.45;;;;;;;;;;6267816;22;20020;-95
2022/12/12 00:45:59;;;;;;;25.45;9.80;;;;;;;;;;6267231;22;20412;-93
2022/12/12 00:48:24;;;;;;;20.50;9.00;;;;;;;;;;6265212;22;20070;-93
2022/12/12 00:50:50;;;;;;;22.02;8.57;;;;;;;;;;6268197;22;19995;-93
2022/12/12 00:53:15;;;;;;;24.70;8.77;;;;;;;;;;6264126;22;20012;-92
2022/12/12 00:55:41;;;;;;;24.90;9.70;;;;;;;;;;6315456;22;20010;-93
2022/12/12 00:58:06;;;;;;;23.95;9.05;;;;;;;;;;6315006;22;20007;-93
2022/12/12 01:00:31;;;;;;;24.10;9.38;;;;;;;;;;6266535;22;20000;-92
2022/12/12 01:02:57;;;;;;;22.40;8.90;;;;;;;;;;6264907;22;19996;-93
2022/12/12 01:05:23;;;;;;;19.50;8.23;;;;;;;;;;6264120;22;20020;-93
2022/12/12 01:07:48;;;;;;;22.65;8.90;;;;;;;;;;6265960;22;20094;-93
2022/12/12 01:10:13;;;;;;;22.95;9.40;;;;;;;;;;6268280;22;20003;-92
2022/12/12 01:12:39;;;;;;;22.67;10.02;;;;;;;;;;6318562;22;20410;-93
2022/12/12 01:15:06;;;;;;;24.40;9.43;;;;;;;;;;6318899;22;20330;-91
2022/12/12 01:17:36;;;;;;;26.92;10.27;;;;;;;;;;6266890;22;20008;-93
2022/12/12 01:20:02;;;;;;;23.27;10.02;;;;;;;;;;6317700;22;19999;-92
2022/12/12 01:22:28;;;;;;;26.17;11.02;;;;;;;;;;6268789;22;20091;-92
2022/12/12 01:24:55;;;;;;;23.67;9.48;;;;;;;;;;6268492;22;20035;-92
2022/12/12 01:27:21;;;;;;;23.13;9.80;;;;;;;;;;6268842;22;20011;-93
2022/12/12 01:29:46;;;;;;;23.33;10.07;;;;;;;;;;6271189;22;20008;-92
2022/12/12 01:32:11;;;;;;;24.33;9.60;;;;;;;;;;6269084;22;20113;-92
2022/12/12 01:34:36;;;;;;;24.57;9.37;;;;;;;;;;6323961;22;20472;-92
2022/12/12 01:37:02;;;;;;;23.07;9.13;;;;;;;;;;6324656;22;20684;-93
2022/12/12 01:39:27;;;;;;;25.40;10.73;;;;;;;;;;6324714;22;20713;-93
2022/12/12 01:41:52;;;;;;;27.70;11.13;;;;;;;;;;6324474;22;20015;-93
2022/12/12 01:44:36;;;;;;;24.65;10.63;;;;;;;;;;6299928;22;20030;-92
2022/12/12 01:47:02;;;;;;;29.23;10.50;;;;;;;;;;6272479;22;20057;-92
2022/12/12 01:49:27;;;;;;;28.20;11.82;;;;;;;;;;6323844;22;20007;-92
2022/12/12 01:52:01;;;;;;;26.13;10.95;;;;;;;;;;6274023;22;20638;-92
2022/12/12 01:54:29;;;;;;;26.65;10.48;;;;;;;;;;6271236;22;20038;-93
2022/12/12 01:56:55;;;;;;;25.58;9.85;;;;;;;;;;6270804;22;20007;-92
2022/12/12 01:59:23;;;;;;;27.83;10.65;;;;;;;;;;6271168;22;20010;-93
2022/12/12 02:01:49;;;;;;;27.33;9.98;;;;;;;;;;6271851;22;20003;-92
2022/12/12 02:04:15;;;;;;;26.83;10.77;;;;;;;;;;6270334;22;20392;-92
2022/12/12 02:06:41;;;;;;;24.65;10.68;;;;;;;;;;6296713;22;20221;-93
2022/12/12 02:09:08;;;;;;;27.75;10.82;;;;;;;;;;6269742;22;20069;-92
2022/12/12 02:11:35;;;;;;;26.48;10.25;;;;;;;;;;6271164;22;20011;-92
2022/12/12 02:14:00;;;;;;;27.92;10.23;;;;;;;;;;6271038;22;20478;-92
2022/12/12 02:16:33;;;;;;;25.23;9.77;;;;;;;;;;6270232;22;20007;-92
2022/12/12 02:18:58;;;;;;;26.92;10.25;;;;;;;;;;6270220;22;20019;-92
2022/12/12 02:21:36;;;;;;;27.02;10.18;;;;;;;;;;6268793;22;20003;-92
2022/12/12 02:24:02;;;;;;;28.13;10.25;;;;;;;;;;6271856;22;20042;-92
2022/12/12 02:26:46;;;;;;;24.48;10.10;;;;;;;;;;6272515;22;20566;-92
2022/12/12 02:29:25;;;;;;;26.70;10.98;;;;;;;;;;6273130;22;20781;-92
2022/12/12 02:32:00;;;;;;;27.63;11.32;;;;;;;;;;6268792;22;20034;-92
2022/12/12 02:34:44;;;;;;;27.23;10.65;;;;;;;;;;6272245;22;20457;-92
2022/12/12 02:37:18;;;;;;;28.20;10.63;;;;;;;;;;6272392;22;19999;-93
2022/12/12 02:39:52;;;;;;;27.83;10.98;;;;;;;;;;6273297;22;19999;-92
2022/12/12 02:42:22;;;;;;;29.30;10.65;;;;;;;;;;6272972;22;20034;-91
2022/12/12 02:44:54;;;;;;;27.17;10.98;;;;;;;;;;6274043;22;20011;-91
2022/12/12 02:47:28;;;;;;;26.35;10.15;;;;;;;;;;6299972;22;20034;-92
2022/12/12 02:49:57;;;;;;;31.15;11.95;;;;;;;;;;6271943;22;20038;-92
2022/12/12 02:52:22;;;;;;;25.50;11.10;;;;;;;;;;6299802;22;20011;-92
2022/12/12 02:54:48;;;;;;;27.30;10.13;;;;;;;;;;6270643;22;20007;-92
2022/12/12 02:57:15;;;;;;;29.60;10.90;;;;;;;;;;6323196;22;20204;-91
2022/12/12 02:59:41;;;;;;;27.13;11.18;;;;;;;;;;6266617;22;20007;-90
2022/12/12 03:02:25;;;;;;;27.52;10.52;;;;;;;;;;6215311;22;20856;-93
2022/12/12 03:07:46;;;;;;;27.52;10.60;;;;;;;;;;6270954;22;20089;-93
2022/12/12 03:10:34;;;;;;;29.02;10.00;;;;;;;;;;6247182;22;20015;-92
2022/12/12 03:13:18;;;;;;;28.15;9.95;;;;;;;;;;6243939;22;20008;-93
2022/12/12 03:15:53;;;;;;;32.70;10.80;;;;;;;;;;6248341;22;20110;-93
2022/12/12 03:18:27;;;;;;;47.00;12.02;;;;;;;;;;6246161;22;20022;-92
2022/12/12 03:20:59;;;;;;;100.60;13.00;;;;;;;;;;6246752;22;20022;-92
2022/12/12 03:23:27;;;;;;;60.58;11.68;;;;;;;;;;6246169;22;20429;-93
2022/12/12 03:25:59;;;;;;;31.63;10.98;;;;;;;;;;6241685;22;20004;-93
2022/12/12 03:28:32;;;;;;;26.05;9.90;;;;;;;;;;6249559;22;20066;-91
2022/12/12 03:30:59;;;;;;;25.65;10.15;;;;;;;;;;6266197;22;20429;-92
2022/12/12 03:33:45;;;;;;;33.20;10.40;;;;;;;;;;6271978;22;20008;-92
2022/12/12 03:36:16;;;;;;;25.17;9.75;;;;;;;;;;6269454;22;20073;-92
2022/12/12 03:38:46;;;;;;;28.92;10.48;;;;;;;;;;6246589;22;20003;-92
2022/12/12 03:41:17;;;;;;;34.42;11.05;;;;;;;;;;6246746;22;19999;-92
2022/12/12 03:43:50;;;;;;;32.08;11.20;;;;;;;;;;6241319;23;20015;-92
2022/12/12 03:46:22;;;;;;;26.77;9.70;;;;;;;;;;6262007;22;20019;-93
2022/12/12 03:49:01;;;;;;;29.55;11.07;;;;;;;;;;6247690;22;20083;-92
2022/12/12 03:51:31;;;;;;;28.38;10.20;;;;;;;;;;6241522;23;20012;-93
2022/12/12 03:53:59;;;;;;;28.35;10.70;;;;;;;;;;6269884;22;20065;-93
2022/12/12 03:56:28;;;;;;;24.48;9.35;;;;;;;;;;6241992;23;20004;-92
2022/12/12 03:59:06;;;;;;;26.58;10.50;;;;;;;;;;6268858;22;20010;-92
2022/12/12 04:01:50;;;;;;;31.48;10.57;;;;;;;;;;6272417;22;20118;-91
2022/12/12 04:04:20;;;;;;;32.40;11.57;;;;;;;;;;6246176;22;20019;-92
2022/12/12 04:06:48;;;;;;;26.55;9.85;;;;;;;;;;6240235;23;20019;-91
2022/12/12 04:14:53;;;;;;;26.58;10.70;;;;;;;;;;6273135;22;20861;-90
2022/12/12 04:17:22;;;;;;;28.27;10.07;;;;;;;;;;6246060;22;20082;-92
2022/12/12 04:26:37;;;;;;;27.65;10.50;;;;;;;;;;6274209;22;20034;-92
2022/12/12 04:28:20;;;;;;;29.85;9.82;;;;;;;;;;6273644;22;20314;-92
2022/12/12 04:30:45;;;;;;;32.70;10.30;;;;;;;;;;6275170;22;20033;-92
2022/12/12 04:33:12;;;;;;;29.05;10.00;;;;;;;;;;6251537;22;20007;-92
2022/12/12 04:35:40;;;;;;;34.70;10.88;;;;;;;;;;6262589;23;20015;-93
2022/12/12 04:38:08;;;;;;;46.05;9.48;;;;;;;;;;6286944;22;20464;-93
2022/12/12 04:40:35;;;;;;;30.20;10.40;;;;;;;;;;6278407;22;19999;-93
2022/12/12 04:43:05;;;;;;;29.98;9.95;;;;;;;;;;6276815;22;19998;-92
2022/12/12 04:45:33;;;;;;;30.92;10.32;;;;;;;;;;6252206;23;20012;-92
2022/12/12 04:47:59;;;;;;;33.15;11.05;;;;;;;;;;6259770;22;20011;-93
2022/12/12 04:50:26;;;;;;;43.13;12.27;;;;;;;;;;6260524;22;20437;-93
2022/12/12 04:52:53;;;;;;;33.85;10.52;;;;;;;;;;6274701;22;20015;-92
2022/12/12 04:55:24;;;;;;;39.78;11.50;;;;;;;;;;6244152;22;20110;-93
2022/12/12 04:57:52;;;;;;;43.40;12.00;;;;;;;;;;6272887;22;19999;-93
2022/12/12 05:00:19;;;;;;;57.72;12.50;;;;;;;;;;6240077;23;20012;-92
2022/12/12 05:03:05;;;;;;;56.85;13.30;;;;;;;;;;6239090;22;20031;-93
2022/12/12 05:05:36;;;;;;;57.70;14.13;;;;;;;;;;6262310;22;20003;-92
2022/12/12 05:08:21;;;;;;;93.47;13.18;;;;;;;;;;6242133;22;20020;-93
2022/12/12 05:10:50;;;;;;;108.13;14.10;;;;;;;;;;6236851;23;20004;-91
2022/12/12 05:13:17;;;;;;;258.05;19.92;;;;;;;;;;6223643;23;20111;-92
2022/12/12 05:15:42;;;;;;;195.95;18.33;;;;;;;;;;6237439;23;20043;-92
2022/12/12 05:18:09;;;;;;;154.85;16.70;;;;;;;;;;6268915;22;20754;-92
2022/12/12 05:20:34;;;;;;;110.90;13.00;;;;;;;;;;6271297;22;20053;-92
2022/12/12 05:22:59;;;;;;;221.32;17.95;;;;;;;;;;6240601;22;20012;-93
2022/12/12 05:25:25;;;;;;;253.57;18.13;;;;;;;;;;6242554;22;20012;-93
2022/12/12 05:27:50;;;;;;;181.02;17.55;;;;;;;;;;6245412;22;20400;-92
2022/12/12 05:30:16;;;;;;;142.55;12.27;;;;;;;;;;6246145;22;20008;-93
2022/12/12 05:32:41;;;;;;;227.95;16.48;;;;;;;;;;6239706;23;20008;-92
2022/12/12 05:35:06;;;;;;;139.10;12.73;;;;;;;;;;6244823;22;20010;-92
2022/12/12 05:37:32;;;;;;;171.82;14.30;;;;;;;;;;6272704;22;20421;-91
2022/12/12 05:39:58;;;;;;;38.88;10.23;;;;;;;;;;6271092;22;20033;-92
2022/12/12 05:42:25;;;;;;;27.50;9.50;;;;;;;;;;6244709;22;20010;-92
2022/12/12 05:44:50;;;;;;;22.25;6.97;;;;;;;;;;6245053;22;20440;-92
2022/12/12 05:47:17;;;;;;;22.00;6.82;;;;;;;;;;6245607;22;20008;-92
2022/12/12 05:49:42;;;;;;;19.75;6.53;;;;;;;;;;6272364;22;20658;-92
2022/12/12 05:52:08;;;;;;;16.92;5.60;;;;;;;;;;6246021;22;20012;-92
2022/12/12 05:54:33;;;;;;;17.10;4.90;;;;;;;;;;6244387;22;20340;-93
2022/12/12 05:56:58;;;;;;;14.52;4.65;;;;;;;;;;6268426;22;20015;-92
2022/12/12 05:59:23;;;;;;;15.50;4.68;;;;;;;;;;6242755;22;20083;-92
2022/12/12 06:01:49;;;;;;;13.57;4.97;;;;;;;;;;6238808;22;20004;-91
2022/12/12 06:04:14;;;;;;;16.97;5.07;;;;;;;;;;6242196;22;20019;-92
2022/12/12 06:06:39;;;;;;;12.55;4.40;;;;;;;;;;6244307;22;20236;-93
2022/12/12 06:09:04;;;;;;;19.50;5.88;;;;;;;;;;6270514;22;20008;-93
2022/12/12 06:11:30;;;;;;;16.67;4.78;;;;;;;;;;6274382;22;20011;-92
2022/12/12 06:13:55;;;;;;;15.15;4.85;;;;;;;;;;6247117;22;20103;-93
2022/12/12 06:16:20;;;;;;;13.52;4.18;;;;;;;;;;6246771;22;20003;-91
2022/12/12 06:18:49;;;;;;;14.25;4.65;;;;;;;;;;6241241;23;20033;-93
2022/12/12 06:21:14;;;;;;;14.93;5.18;;;;;;;;;;6262903;22;20065;-91
2022/12/12 06:23:40;;;;;;;16.85;5.18;;;;;;;;;;6246936;22;20632;-91
2022/12/12 06:26:06;;;;;;;19.27;5.82;;;;;;;;;;6274230;22;19999;-92
2022/12/12 06:28:32;;;;;;;19.85;5.95;;;;;;;;;;6272751;22;20008;-91
2022/12/12 06:30:57;;;;;;;18.08;5.50;;;;;;;;;;6275233;22;19991;-91
2022/12/12 06:33:23;;;;;;;19.52;5.97;;;;;;;;;;6270806;22;20013;-93
2022/12/12 06:35:58;;;;;;;18.63;6.38;;;;;;;;;;6273401;22;20011;-92
2022/12/12 06:38:23;;;;;;;16.13;5.50;;;;;;;;;;6245437;22;20003;-92
2022/12/12 06:40:51;;;;;;;13.52;4.40;;;;;;;;;;6273285;22;20014;-93
2022/12/12 06:43:17;;;;;;;16.88;4.90;;;;;;;;;;6272185;22;20011;-92
2022/12/12 06:45:43;;;;;;;16.67;5.03;;;;;;;;;;6271633;22;20007;-93
2022/12/12 06:48:08;;;;;;;17.38;5.68;;;;;;;;;;6270237;22;20262;-92
2022/12/12 06:50:37;;;;;;;14.80;4.40;;;;;;;;;;6272184;22;20034;-93
2022/12/12 06:53:02;;;;;;;12.68;4.55;;;;;;;;;;6243247;22;20031;-93
2022/12/12 06:55:28;;;;;;;11.82;3.80;;;;;;;;;;6272716;22;20000;-91
2022/12/12 06:57:53;;;;;;;13.85;4.10;;;;;;;;;;6271964;22;19996;-92
2022/12/12 07:00:18;;;;;;;15.10;4.38;;;;;;;;;;6274849;22;20518;-92
2022/12/12 07:02:44;;;;;;;12.45;4.40;;;;;;;;;;6273830;22;20106;-94
2022/12/12 07:05:09;;;;;;;12.13;4.15;;;;;;;;;;6251412;22;20022;-93
2022/12/12 07:07:34;;;;;;;16.38;5.00;;;;;;;;;;6288350;22;20087;-93
2022/12/12 07:10:00;;;;;;;13.80;4.90;;;;;;;;;;6267657;22;20208;-93
2022/12/12 07:12:27;;;;;;;14.65;4.68;;;;;;;;;;6278406;22;19999;-93
2022/12/12 07:14:53;;;;;;;17.00;5.05;;;;;;;;;;6245314;22;20015;-93
2022/12/12 07:17:18;;;;;;;17.08;5.60;;;;;;;;;;6249848;22;20038;-93
2022/12/12 07:19:43;;;;;;;18.77;6.00;;;;;;;;;;6284010;22;20020;-93
2022/12/12 07:22:08;;;;;;;15.93;5.47;;;;;;;;;;6267289;22;20046;-93
2022/12/12 07:24:34;;;;;;;19.23;5.63;;;;;;;;;;6253897;22;20000;-93
2022/12/12 07:26:59;;;;;;;19.85;6.25;;;;;;;;;;6250141;22;20357;-94
2022/12/12 07:29:24;;;;;;;16.08;5.05;;;;;;;;;;6249052;22;20031;-93
2022/12/12 07:31:50;;;;;;;15.40;4.97;;;;;;;;;;6269604;22;20000;-93
2022/12/12 07:34:15;;;;;;;17.92;5.03;;;;;;;;;;6246915;22;20039;-93
2022/12/12 07:36:41;;;;;;;14.50;5.33;;;;;;;;;;6240711;23;20000;-92
2022/12/12 07:39:06;;;;;;;14.38;5.18;;;;;;;;;;6239438;23;20225;-91
2022/12/12 07:41:31;;;;;;;13.50;4.32;;;;;;;;;;6230340;23;20004;-93
2022/12/12 07:43:59;;;;;;;12.93;4.47;;;;;;;;;;6268723;22;19999;-94
2022/12/12 07:46:24;;;;;;;13.13;4.38;;;;;;;;;;6244160;22;20106;-91
2022/12/12 07:48:50;;;;;;;12.13;4.07;;;;;;;;;;6270998;22;20031;-92
2022/12/12 07:51:16;;;;;;;12.85;4.15;;;;;;;;;;6245612;22;20018;-90
2022/12/12 07:53:42;;;;;;;23.25;7.32;;;;;;;;;;6269261;22;19995;-92
2022/12/12 07:56:08;;;;;;;58.10;9.45;;;;;;;;;;6271139;22;20107;-92
2022/12/12 07:58:36;;;;;;;52.85;9.60;;;;;;;;;;6271481;22;20003;-92
2022/12/12 08:01:09;;;;;;;29.35;8.18;;;;;;;;;;6270456;22;20004;-93
2022/12/12 08:03:35;;;;;;;45.25;7.65;;;;;;;;;;6242946;22;20028;-92
2022/12/12 08:06:02;;;;;;;39.08;7.22;;;;;;;;;;6267427;22;20004;-92
2022/12/12 08:08:28;;;;;;;128.88;10.70;;;;;;;;;;6245260;22;20015;-93
2022/12/12 08:10:53;;;;;;;108.93;10.52;;;;;;;;;;6242544;22;20150;-92
2022/12/12 08:13:18;;;;;;;105.68;12.68;;;;;;;;;;6245393;22;20014;-92
2022/12/12 08:15:43;;;;;;;23.33;6.63;;;;;;;;;;6244731;22;19999;-92
2022/12/12 08:18:09;;;;;;;15.15;4.75;;;;;;;;;;6244433;22;20231;-92
2022/12/12 08:20:34;;;;;;;14.52;4.88;;;;;;;;;;6243591;22;20019;-90
2022/12/12 08:22:59;;;;;;;15.00;4.55;;;;;;;;;;6269838;22;20074;-92
2022/12/12 08:25:25;;;;;;;16.25;4.45;;;;;;;;;;6269330;22;20041;-94
2022/12/12 08:27:50;;;;;;;16.50;4.65;;;;;;;;;;6243115;22;20011;-93
2022/12/12 08:30:15;;;;;;;13.75;4.57;;;;;;;;;;6242921;22;20077;-93
2022/12/12 08:32:40;;;;;;;18.73;5.50;;;;;;;;;;6270902;22;20011;-93
2022/12/12 08:35:06;;;;;;;14.95;4.88;;;;;;;;;;6267611;22;20004;-92
2022/12/12 08:37:31;;;;;;;15.50;4.78;;;;;;;;;;6270764;22;19998;-92
2022/12/12 08:39:56;;;;;;;13.88;4.72;;;;;;;;;;6270743;22;20024;-91
2022/12/12 08:42:23;;;;;;;54.42;8.88;;;;;;;;;;6271867;22;20034;-92
2022/12/12 08:44:48;;;;;;;14.30;5.47;;;;;;;;;;6272807;22;19991;-92
2022/12/12 08:47:14;;;;;;;16.92;6.05;;;;;;;;;;6271145;22;20015;-91
2022/12/12 08:49:40;;;;;;;13.20;5.25;;;;;;;;;;6271450;22;20015;-91
2022/12/12 08:52:08;;;;;;;17.45;4.82;;;;;;;;;;6272523;22;20035;-92
2022/12/12 08:54:34;;;;;;;16.35;5.70;;;;;;;;;;6272384;22;20034;-92
2022/12/12 08:56:59;;;;;;;19.15;6.63;;;;;;;;;;6270635;22;20011;-92
2022/12/12 08:59:24;;;;;;;18.33;6.40;;;;;;;;;;6247031;22;19996;-93
2022/12/12 09:01:50;;;;;;;13.27;4.25;;;;;;;;;;6245437;22;20053;-92
2022/12/12 09:04:15;;;;;;;9.88;3.13;;;;;;;;;;6245739;22;20766;-93
2022/12/12 09:06:41;;;;;;;10.32;2.78;;;;;;;;;;6269474;22;20285;-93
2022/12/12 09:09:06;;;;;;;7.00;2.50;;;;;;;;;;6273157;22;20011;-92
2022/12/12 09:11:31;;;;;;;8.20;2.33;;;;;;;;;;6272336;22;20011;-92
2022/12/12 09:13:57;;;;;;;9.73;2.33;;;;;;;;;;6271934;22;20018;-93
2022/12/12 09:16:25;;;;;;;8.88;2.53;;;;;;;;;;6272831;22;20003;-93
2022/12/12 09:18:50;;;;;;;7.78;2.25;;;;;;;;;;6273130;22;19996;-92
2022/12/12 09:21:16;;;;;;;9.27;2.50;;;;;;;;;;6247095;22;20108;-93
2022/12/12 09:23:41;;;;;;;8.23;2.50;;;;;;;;;;6273954;22;20796;-93
2022/12/12 09:26:07;;;;;;;9.82;2.38;;;;;;;;;;6273011;22;20086;-93
2022/12/12 09:28:34;;;;;;;12.57;3.30;;;;;;;;;;6277990;22;20012;-93
2022/12/12 09:30:59;;;;;;;12.13;2.67;;;;;;;;;;6292701;22;20016;-93
2022/12/12 09:33:24;;;;;;;9.32;3.03;;;;;;;;;;6286177;22;20018;-93
2022/12/12 09:35:56;;;;;;;7.35;2.30;;;;;;;;;;6249308;22;20018;-94
2022/12/12 09:38:22;;;;;;;8.10;2.67;;;;;;;;;;6274810;22;20007;-92
2022/12/12 09:40:55;;;;;;;6.07;1.85;;;;;;;;;;6286343;22;19999;-92
2022/12/12 09:43:40;;;;;;;10.63;3.00;;;;;;;;;;6292840;22;19995;-92
2022/12/12 09:46:14;;;;;;;10.25;3.75;;;;;;;;;;6253330;22;20074;-92
2022/12/12 09:48:44;;;;;;;10.52;3.92;;;;;;;;;;6245679;22;20449;-93
2022/12/12 09:51:11;;;;;;;11.52;3.38;;;;;;;;;;6270980;22;20012;-93
2022/12/12 09:53:37;;;;;;;9.75;2.80;;;;;;;;;;6245934;22;20000;-92
2022/12/12 09:56:06;;;;;;;8.90;2.92;;;;;;;;;;6244470;22;20012;-94
2022/12/12 09:58:49;;;;;;;11.00;3.70;;;;;;;;;;6245207;22;20075;-92
2022/12/12 10:01:35;;;;;;;12.32;3.63;;;;;;;;;;6244530;22;20003;-92
2022/12/12 10:04:19;;;;;;;12.07;3.13;;;;;;;;;;6269374;22;20020;-94
2022/12/12 10:06:48;;;;;;;9.77;3.35;;;;;;;;;;6246113;22;20004;-93
2022/12/12 10:09:33;;;;;;;9.68;2.97;;;;;;;;;;6271735;22;20101;-92
2022/12/12 10:11:59;;;;;;;9.95;3.30;;;;;;;;;;6242903;22;20102;-92
2022/12/12 10:14:28;;;;;;;9.82;2.92;;;;;;;;;;6270453;22;20000;-92
2022/12/12 10:16:54;;;;;;;9.35;2.85;;;;;;;;;;6269902;22;19991;-91
2022/12/12 10:19:22;;;;;;;12.40;3.15;;;;;;;;;;6242700;22;20020;-92
2022/12/12 10:21:50;;;;;;;10.15;2.90;;;;;;;;;;6270391;22;20083;-91
2022/12/12 10:24:32;;;;;;;9.98;2.67;;;;;;;;;;6269178;22;20004;-92
2022/12/12 10:26:59;;;;;;;9.57;2.90;;;;;;;;;;6241696;22;20046;-91
2022/12/12 10:29:25;;;;;;;11.48;2.90;;;;;;;;;;6244236;22;20008;-93
2022/12/12 10:31:50;;;;;;;9.02;2.83;;;;;;;;;;6268681;22;20378;-93
2022/12/12 10:34:18;;;;;;;9.53;2.87;;;;;;;;;;6243309;22;20329;-92
2022/12/12 10:36:56;;;;;;;9.52;2.85;;;;;;;;;;6238913;22;20233;-91
2022/12/12 10:39:24;;;;;;;7.43;2.60;;;;;;;;;;6266074;22;20091;-92
2022/12/12 10:41:55;;;;;;;8.45;3.13;;;;;;;;;;6241342;22;20782;-90
2022/12/12 10:44:28;;;;;;;8.13;2.90;;;;;;;;;;6269206;22;20004;-91
2022/12/12 10:46:53;;;;;;;9.57;3.05;;;;;;;;;;6240907;22;20122;-92
2022/12/12 10:49:19;;;;;;;11.55;3.13;;;;;;;;;;6241011;22;20101;-91
2022/12/12 10:51:46;;;;;;;9.20;3.00;;;;;;;;;;6266976;22;20536;-92
2022/12/12 10:54:23;;;;;;;9.80;3.17;;;;;;;;;;6236957;22;20073;-92
2022/12/12 10:57:03;;;;;;;9.38;3.10;;;;;;;;;;6238381;22;20508;-92
2022/12/12 10:59:41;;;;;;;9.30;3.30;;;;;;;;;;6241914;22;20007;-92
2022/12/12 11:02:19;;;;;;;9.50;2.97;;;;;;;;;;6268098;22;20003;-93
2022/12/12 11:04:45;;;;;;;9.77;3.00;;;;;;;;;;6264898;22;20375;-92
2022/12/12 11:07:15;;;;;;;9.90;3.78;;;;;;;;;;6267200;22;20795;-92
2022/12/12 11:09:44;;;;;;;11.75;3.70;;;;;;;;;;6269345;22;20018;-92
2022/12/12 11:12:09;;;;;;;11.52;3.38;;;;;;;;;;6240594;22;20647;-92
2022/12/12 11:14:39;;;;;;;8.77;2.50;;;;;;;;;;6241391;22;20421;-91
2022/12/12 11:17:23;;;;;;;8.95;2.70;;;;;;;;;;6267938;22;20228;-92
2022/12/12 11:19:50;;;;;;;9.73;2.75;;;;;;;;;;6242937;22;19999;-92
2022/12/12 11:22:16;;;;;;;8.25;2.35;;;;;;;;;;6269875;22;20003;-94
2022/12/12 11:24:43;;;;;;;10.52;2.78;;;;;;;;;;6270253;22;20011;-92
2022/12/12 11:27:16;;;;;;;14.50;2.95;;;;;;;;;;6242278;22;20030;-92
2022/12/12 11:29:45;;;;;;;7.95;1.90;;;;;;;;;;6269855;22;20014;-93
2022/12/12 11:32:12;;;;;;;70.75;5.90;;;;;;;;;;6267240;22;20008;-92
2022/12/12 11:34:38;;;;;;;5.95;1.60;;;;;;;;;;6242614;22;20633;-93
2022/12/12 11:37:03;;;;;;;5.40;1.40;;;;;;;;;;6270046;22;20007;-93
2022/12/12 11:39:31;;;;;;;6.18;1.77;;;;;;;;;;6271412;22;20102;-93
2022/12/12 11:42:01;;;;;;;7.00;1.88;;;;;;;;;;6243596;22;20442;-92
2022/12/12 11:44:30;;;;;;;8.57;2.00;;;;;;;;;;6242916;22;20015;-92
2022/12/12 11:46:55;;;;;;;8.68;2.33;;;;;;;;;;6244722;22;20116;-92
2022/12/12 11:49:21;;;;;;;6.43;2.00;;;;;;;;;;6246720;22;20476;-92
2022/12/12 11:51:47;;;;;;;5.78;1.80;;;;;;;;;;6284251;22;19996;-92
2022/12/12 11:54:13;;;;;;;6.25;2.00;;;;;;;;;;6294770;22;19992;-92
2022/12/12 11:56:57;;;;;;;7.82;2.13;;;;;;;;;;6251653;22;20011;-92
2022/12/12 11:59:22;;;;;;;;;;;;;;;;;;6267755;22;20019;-91
2022/12/12 12:01:56;;;;;;;6.03;2.00;;;;;;;;;;6266581;22;19899;-91
2022/12/12 12:04:40;;;;;;;9.55;2.92;;;;;;;;;;6288056;22;20000;-92
2022/12/12 12:07:25;;;;;;;10.30;2.95;;;;;;;;;;6258670;22;20064;-91
2022/12/12 12:10:05;;;;;;;9.05;2.92;;;;;;;;;;6245935;22;19991;-90
2022/12/12 12:12:39;;;;;;;11.65;4.32;;;;;;;;;;6271319;22;20000;-90
2022/12/12 12:15:23;;;;;;;11.75;4.25;;;;;;;;;;6243500;22;20031;-91
2022/12/12 12:18:00;;;;;;;23.38;9.23;;;;;;;;;;6272767;22;20100;-91
2022/12/12 12:20:25;;;;;;;29.83;11.30;;;;;;;;;;6242494;22;20015;-92
2022/12/12 12:23:06;;;;;;;32.17;10.97;;;;;;;;;;6271882;22;20046;-90
2022/12/12 12:25:43;;;;;;;31.63;11.85;;;;;;;;;;6268544;22;20539;-92
2022/12/12 12:28:09;;;;;;;31.98;11.68;;;;;;;;;;6269702;22;20314;-91
2022/12/12 12:30:53;;;;;;;25.73;9.90;;;;;;;;;;6269034;22;20082;-92
2022/12/12 12:33:37;;;;;;;26.90;9.52;;;;;;;;;;6244551;22;20011;-90
2022/12/12 12:36:02;;;;;;;18.73;6.88;;;;;;;;;;6243619;22;20011;-91
2022/12/12 12:38:46;;;;;;;17.40;6.33;;;;;;;;;;6271384;22;20026;-91
2022/12/12 12:41:34;;;;;;;19.30;7.18;;;;;;;;;;6241764;22;20289;-90
2022/12/12 12:43:59;;;;;;;22.48;7.88;;;;;;;;;;6241455;22;20031;-90
2022/12/12 12:46:40;;;;;;;26.10;9.43;;;;;;;;;;6241141;22;20345;-90
2022/12/12 12:49:11;;;;;;;33.72;10.23;;;;;;;;;;6242221;22;20264;-91
2022/12/12 12:51:39;;;;;;;25.33;10.07;;;;;;;;;;6265954;22;20099;-91
2022/12/12 12:54:20;;;;;;;28.92;9.80;;;;;;;;;;6264382;22;20401;-91
2022/12/12 12:56:48;;;;;;;27.52;9.88;;;;;;;;;;6303564;22;20007;-90
2022/12/12 12:59:16;;;;;;;106.50;14.82;;;;;;;;;;6300807;22;20002;-90
2022/12/12 13:01:47;;;;;;;19.85;7.50;;;;;;;;;;6299236;22;20007;-90
2022/12/12 13:04:21;;;;;;;17.98;7.45;;;;;;;;;;6300472;22;20018;-90
2022/12/12 13:06:49;;;;;;;23.70;8.63;;;;;;;;;;6300636;22;20391;-90
2022/12/12 13:09:34;;;;;;;21.90;7.90;;;;;;;;;;6300541;22;20010;-91
2022/12/12 13:12:04;;;;;;;21.80;9.15;;;;;;;;;;6329408;22;20017;-90
2022/12/12 13:14:41;;;;;;;22.52;8.95;;;;;;;;;;6330878;22;20002;-91
2022/12/12 13:17:11;;;;;;;22.50;9.25;;;;;;;;;;6330843;22;19999;-91
2022/12/12 13:19:40;;;;;;;21.55;8.63;;;;;;;;;;6300729;22;20082;-90
2022/12/12 13:22:10;;;;;;;20.05;7.97;;;;;;;;;;6302131;22;20531;-91
2022/12/12 13:24:35;;;;;;;24.75;8.30;;;;;;;;;;6302166;22;20602;-90
2022/12/12 13:27:01;;;;;;;23.63;8.30;;;;;;;;;;6303294;22;20117;-91
2022/12/12 13:29:26;;;;;;;21.02;7.75;;;;;;;;;;6302121;22;20006;-91
2022/12/12 13:32:33;;;;;;;21.70;8.00;;;;;;;;;;6328948;22;20007;-92
2022/12/12 13:35:03;;;;;;;26.15;10.25;;;;;;;;;;6172339;23;20005;-91
2022/12/12 13:37:31;;;;;;;27.50;10.82;;;;;;;;;;6147812;23;20096;-91
2022/12/12 13:40:05;;;;;;;23.15;8.70;;;;;;;;;;6148291;23;20056;-91
2022/12/12 13:42:49;;;;;;;24.17;9.27;;;;;;;;;;6174146;23;20069;-91
2022/12/12 13:45:34;;;;;;;26.58;10.45;;;;;;;;;;6174366;23;20040;-91
2022/12/12 13:48:03;;;;;;;35.22;13.00;;;;;;;;;;6149101;23;20016;-91
2022/12/12 13:50:28;;;;;;;35.40;13.68;;;;;;;;;;6172834;23;20032;-91
2022/12/12 13:53:02;;;;;;;38.08;14.63;;;;;;;;;;6145527;23;20433;-91
2022/12/12 13:55:28;;;;;;;36.03;14.48;;;;;;;;;;6146253;23;20463;-91
2022/12/12 13:57:56;;;;;;;30.83;11.40;;;;;;;;;;6168380;23;20009;-90
2022/12/12 14:00:23;;;;;;;29.85;11.20;;;;;;;;;;6144736;23;20506;-90
2022/12/12 14:02:57;;;;;;;29.58;11.10;;;;;;;;;;6173663;23;20005;-91
2022/12/12 14:05:30;;;;;;;32.65;11.32;;;;;;;;;;6205782;22;20010;-91
2022/12/12 14:07:56;;;;;;;;;;;;;;;;;;6334447;22;20018;-91
2022/12/12 14:10:30;;;;;;;32.05;10.75;;;;;;;;;;6339053;22;19899;-90
2022/12/12 14:12:56;;;;;;;29.90;10.43;;;;;;;;;;6358655;22;20015;-90
2022/12/12 14:15:31;;;;;;;36.22;12.80;;;;;;;;;;6322305;22;20080;-91
2022/12/12 14:17:58;;;;;;;37.55;12.35;;;;;;;;;;6333069;22;19991;-91
2022/12/12 14:20:33;;;;;;;46.20;14.02;;;;;;;;;;6336284;22;20327;-90
2022/12/12 14:22:59;;;;;;;35.55;12.90;;;;;;;;;;6312644;22;20087;-90
2022/12/12 14:25:35;;;;;;;38.85;13.88;;;;;;;;;;6360151;22;20309;-90
2022/12/12 14:28:03;;;;;;;31.85;13.02;;;;;;;;;;6351685;22;20018;-90
2022/12/12 14:30:42;;;;;;;33.33;12.90;;;;;;;;;;6305906;22;20432;-90
2022/12/12 14:33:21;;;;;;;37.33;13.30;;;;;;;;;;6309409;22;20003;-91
2022/12/12 14:35:47;;;;;;;45.30;15.00;;;;;;;;;;6307935;22;20018;-90
2022/12/12 14:38:22;;;;;;;43.92;13.40;;;;;;;;;;6332882;22;19999;-90
2022/12/12 14:40:53;;;;;;;39.20;13.73;;;;;;;;;;6305781;22;20034;-91
2022/12/12 14:43:21;;;;;;;42.97;13.48;;;;;;;;;;6308168;22;20007;-89
2022/12/12 14:45:52;;;;;;;51.80;14.85;;;;;;;;;;6305696;22;20064;-91
2022/12/12 14:48:23;;;;;;;59.83;16.75;;;;;;;;;;6307174;22;20006;-91
2022/12/12 14:50:51;;;;;;;56.45;15.80;;;;;;;;;;6307719;22;20009;-90
2022/12/12 14:53:22;;;;;;;49.95;14.60;;;;;;;;;;6306526;22;20019;-92
2022/12/12 14:55:49;;;;;;;56.83;14.18;;;;;;;;;;6307564;22;20088;-91